Terminal Aerodrome Forecast
Issued by NWS

Home | Current Version | Previous Version | Text Only | Print | Product List | Glossary On
Versions: 1 2 3 4 5 6 7 8 9 10 11 12 13
000
FTUS43 KDVN 020520
TAFBRL
TAF
KBRL 020520Z 0206/0306 21007KT P6SM FEW130
     FM021500 23014G20KT P6SM SCT080
     FM030000 22010KT P6SM SKC=

USA.gov is the U.S. government's official web portal to all federal, state and local government web resources and services.